עמוד ראשי
METAR-TAF:

METAR-TAF

שדות תעופה :

Tabatinga, אמזונאס, ברזיל

קו רוחב: 03-40S, קו אורך: 069-40W, גובה: 85מטר

תצפית מזג אוויר נוכחית

הדו"ח נערך לפני 22דקות, בשעה 12:00 UTC
רוח 2קשר מכיוון דרום-מזרח
טמפרטורת 25 צלסיוס
לחות 94%
לחץ 1012 hPa
ראות 10 קילומטר או יותר
עננים בינוניים בגובה 700רגל

METAR: SBTT 121200Z 13002KT 9999 BKN007 25/24 Q1012

זמן: 08:22 (12:22 UTC)

תחזית

הדו"ח נערך לפני 4 שעות ו 3דקות, בשעה 08:19 UTC
תחזית בתוקף מ 12 ב 12 UTC עד 13 ב 12 UTC
רוח 5קשר מכיוון מערב/צפון-מערב
ראות 10 קילומטר או יותר
עננים בינוניים בגובה 600רגל
זמנית מ -
12 ב 12 UTC עד 12 ב 15 UTC
ראות: 4500מטר
אד
יעשה מ
12 ב 15 UTC עד 12 ב 17 UTC
עננים בינוניים בגובה 2000רגל
יעשה מ
12 ב 22 UTC עד 12 ב 24 UTC
רוח 3קשר מכיוון דרום
מעט עננים בגובה 2000רגל
יעשה מ
13 ב 10 UTC עד 13 ב 12 UTC
עננים בינוניים בגובה 700רגל

TAF: SBTT 120819Z 1212/1312 30005KT 9999 BKN006 TX29/1218Z TN25/1311Z TEMPO 1212/1215 4500 BR BECMG 1215/1217 BKN020 BECMG 1222/1224 17003KT FEW020 BECMG 1310/1312 BKN007 RMK PFV

תצפיות ותחזיות מזג אוויר לגבי יותר מ- 4,000 שדות תעופה ברחבי העולם. דוחות METAR ו- TAF.

התחנות הזמינות מסומנות בנקודות צהובות ואדומות על גבי המפה.

העבר את העכבר לנקודה הצבעונית על מנת לראות את שם התחנה.

לאחר מכן, לחץ כדי לראות את תוכן ואת תחזיות מזג האוויר.

כדי לשנות את המפה: לחץ על הכפתורים הירוקים עם הפלוס השחור כדי להתקרב; על הכפתור הירוק עם המקף כדי להתרחק; או בחיצים הירוקים למפות סמוכות.


METAR-TAF: